Nemo, South Dakota
Current Conditions -  °F | °C
As of 4:58 PM on Wednesday 22 Oct 2014 (Local Time) from KRCA Reporting Station
Clear Clear  
Wind Chill: 63°   Ceiling: Unl
Heat Index: 63°   Visibility: 10mi
Dew Point: 30°   Wind: 5mph
Humidity: 29%   Direction: 80°E
Pressure: 29.99"   Gusts: NA
Location:  44.19°N, 103.51°W
Report Text: KRCA 222258Z 08004KT 10SM CLR 17/M01 A2999 RMK AO2A SLP147 T01721009 $
Loading
Personal Weather Stations






























Interactive Weather Map New forecast layout! Learn more

10-Day Weather Forecast

Advertisements
Track Severe Weather on mobile